Aeroporto :
LOGIN :

Iscrizione | Disclaimer

   EN    FR    IT 

 










Sommario :    VFR   VFR Marginale   IFR   IFR Intensivo   IFR Molto Intensivo
Visibilità : 
Base nubi : 
>= 8 km
>= 3000ft
5 / 8 km
1000 / 3000 ft
1500m / 5 km
500 / 1000 ft
800 / 1500m
200 / 500 ft
< 800m
< 200 ft
Simboli :   Temporali  Nebbia  Neve Forte  Precipitazioni Forti  Vento > 20 kt
SIGMETs :   Varie  Temporali  Ghiacco  Turbolenza  Onda orograficha  Ceneri Vulcaniche






- Altitudine del aeroporto : 19 ft
- Codice IATA : LCY


EGLC - London City

ULTIMO METAR :
  • 211150Z AUTO VRB01KT 9999 FEW011 18/13 Q1018

METARs OBSOLETI :
  • 211120Z AUTO VRB02KT 9999 OVC009 16/13 Q1018
  • 211050Z AUTO VRB03KT 9999 OVC006 15/13 Q1018
  • 211020Z AUTO 36004KT 300V080 9999 OVC005 15/13 Q1019
  • 210950Z AUTO 04004KT 320V100 7000 OVC003 14/13 Q1019

TAF TAF EGLC
Valido dal 21 a 12 ore il 21 a 21 ore UTC


211055Z 2112/2121 02003KT 9999 FEW007
PROB30
TEMPO 2112/2113 BKN007
ATIS : +44 20 7646 0224



MetMap, La meteo Aeronautica in un colpo d'occhio ! - Copyright ORBIFLY Dicembre 2007 - Disclaimer

ORBIFLY MET'MAP TEAM :

Programmazione e sviluppo : Alexandra Zaïnal
Concezione : Baudouin d'Aumeries
Aiuto per la programmazione : Marc-Olivier Méhu
Supporto tecnico e logistico : Manuel Goepfert
Aiuto per la traduzione : Arnaldo La Scala

Contatto : metmap@orbifly.com




FONTI E CREDITI :

   NOAA